sensor_id;sensor_type;location;lat;lon;timestamp;P1;durP1;ratioP1;P2;durP2;ratioP2
28910;SDS011;16028;42.642;23.310;2022-07-04T00:01:40;8.55;;;6.30;;
28910;SDS011;16028;42.642;23.310;2022-07-04T00:04:06;8.73;;;5.70;;
28910;SDS011;16028;42.642;23.310;2022-07-04T00:06:33;6.72;;;4.50;;
28910;SDS011;16028;42.642;23.310;2022-07-04T00:09:00;9.43;;;4.60;;
28910;SDS011;16028;42.642;23.310;2022-07-04T00:11:26;5.03;;;4.53;;
28910;SDS011;16028;42.642;23.310;2022-07-04T00:13:53;6.20;;;5.60;;
28910;SDS011;16028;42.642;23.310;2022-07-04T00:16:21;7.57;;;5.70;;
28910;SDS011;16028;42.642;23.310;2022-07-04T00:18:48;9.02;;;6.25;;
28910;SDS011;16028;42.642;23.310;2022-07-04T00:21:15;7.60;;;5.90;;
28910;SDS011;16028;42.642;23.310;2022-07-04T00:23:42;8.32;;;5.45;;
28910;SDS011;16028;42.642;23.310;2022-07-04T00:26:09;8.40;;;5.82;;
28910;SDS011;16028;42.642;23.310;2022-07-04T00:28:35;8.77;;;5.22;;
28910;SDS011;16028;42.642;23.310;2022-07-04T00:31:02;8.98;;;5.70;;
28910;SDS011;16028;42.642;23.310;2022-07-04T00:33:30;6.93;;;5.13;;
28910;SDS011;16028;42.642;23.310;2022-07-04T00:35:57;6.20;;;5.32;;
28910;SDS011;16028;42.642;23.310;2022-07-04T00:38:24;9.30;;;5.80;;
28910;SDS011;16028;42.642;23.310;2022-07-04T00:40:50;5.38;;;4.88;;
28910;SDS011;16028;42.642;23.310;2022-07-04T00:43:20;8.35;;;4.90;;
28910;SDS011;16028;42.642;23.310;2022-07-04T00:45:48;10.77;;;5.28;;
28910;SDS011;16028;42.642;23.310;2022-07-04T00:48:15;6.97;;;5.90;;
28910;SDS011;16028;42.642;23.310;2022-07-04T00:50:45;6.68;;;5.40;;
28910;SDS011;16028;42.642;23.310;2022-07-04T00:53:13;6.45;;;5.60;;
28910;SDS011;16028;42.642;23.310;2022-07-04T00:55:40;10.25;;;5.60;;
28910;SDS011;16028;42.642;23.310;2022-07-04T00:58:07;6.20;;;5.50;;
28910;SDS011;16028;42.642;23.310;2022-07-04T01:00:34;6.65;;;5.60;;
28910;SDS011;16028;42.642;23.310;2022-07-04T01:03:01;7.15;;;5.60;;
28910;SDS011;16028;42.642;23.310;2022-07-04T01:05:28;6.60;;;5.95;;
28910;SDS011;16028;42.642;23.310;2022-07-04T01:07:56;9.23;;;5.93;;
28910;SDS011;16028;42.642;23.310;2022-07-04T01:10:24;6.63;;;6.03;;
28910;SDS011;16028;42.642;23.310;2022-07-04T01:12:51;6.50;;;5.78;;
28910;SDS011;16028;42.642;23.310;2022-07-04T01:15:19;7.55;;;6.00;;
28910;SDS011;16028;42.642;23.310;2022-07-04T01:17:46;8.52;;;5.65;;
28910;SDS011;16028;42.642;23.310;2022-07-04T01:20:14;8.57;;;7.25;;
28910;SDS011;16028;42.642;23.310;2022-07-04T01:22:41;10.95;;;7.28;;
28910;SDS011;16028;42.642;23.310;2022-07-04T01:25:08;10.80;;;7.57;;
28910;SDS011;16028;42.642;23.310;2022-07-04T01:27:35;8.15;;;7.20;;
28910;SDS011;16028;42.642;23.310;2022-07-04T01:30:02;31.48;;;8.88;;
28910;SDS011;16028;42.642;23.310;2022-07-04T01:32:30;10.45;;;7.60;;
28910;SDS011;16028;42.642;23.310;2022-07-04T01:34:56;9.15;;;7.32;;
28910;SDS011;16028;42.642;23.310;2022-07-04T01:37:24;12.73;;;7.40;;
28910;SDS011;16028;42.642;23.310;2022-07-04T01:39:51;8.00;;;7.20;;
28910;SDS011;16028;42.642;23.310;2022-07-04T01:42:18;8.27;;;7.40;;
28910;SDS011;16028;42.642;23.310;2022-07-04T01:44:45;8.63;;;7.57;;
28910;SDS011;16028;42.642;23.310;2022-07-04T01:47:11;10.43;;;7.07;;
28910;SDS011;16028;42.642;23.310;2022-07-04T01:49:38;8.15;;;7.05;;
28910;SDS011;16028;42.642;23.310;2022-07-04T01:52:05;9.38;;;7.57;;
28910;SDS011;16028;42.642;23.310;2022-07-04T01:54:33;7.95;;;6.95;;
28910;SDS011;16028;42.642;23.310;2022-07-04T01:57:00;14.00;;;7.10;;
28910;SDS011;16028;42.642;23.310;2022-07-04T01:59:27;11.18;;;6.95;;
28910;SDS011;16028;42.642;23.310;2022-07-04T02:02:07;12.43;;;7.30;;
28910;SDS011;16028;42.642;23.310;2022-07-04T02:04:34;8.52;;;6.82;;
28910;SDS011;16028;42.642;23.310;2022-07-04T02:07:01;7.65;;;6.85;;
28910;SDS011;16028;42.642;23.310;2022-07-04T02:09:28;8.65;;;7.07;;
28910;SDS011;16028;42.642;23.310;2022-07-04T02:11:57;8.73;;;7.20;;
28910;SDS011;16028;42.642;23.310;2022-07-04T02:14:41;8.13;;;6.80;;
28910;SDS011;16028;42.642;23.310;2022-07-04T02:17:08;12.35;;;7.35;;
28910;SDS011;16028;42.642;23.310;2022-07-04T02:19:35;9.57;;;7.60;;
28910;SDS011;16028;42.642;23.310;2022-07-04T02:22:02;8.90;;;7.45;;
28910;SDS011;16028;42.642;23.310;2022-07-04T02:24:29;10.65;;;7.03;;
28910;SDS011;16028;42.642;23.310;2022-07-04T02:26:57;10.75;;;7.63;;
28910;SDS011;16028;42.642;23.310;2022-07-04T02:29:24;9.23;;;7.65;;
28910;SDS011;16028;42.642;23.310;2022-07-04T02:31:51;10.60;;;7.95;;
28910;SDS011;16028;42.642;23.310;2022-07-04T02:34:18;10.55;;;8.00;;
28910;SDS011;16028;42.642;23.310;2022-07-04T02:36:44;8.80;;;7.65;;
28910;SDS011;16028;42.642;23.310;2022-07-04T02:39:11;12.05;;;8.70;;
28910;SDS011;16028;42.642;23.310;2022-07-04T02:41:38;10.13;;;7.93;;
28910;SDS011;16028;42.642;23.310;2022-07-04T02:44:06;9.27;;;7.28;;
28910;SDS011;16028;42.642;23.310;2022-07-04T02:46:33;8.45;;;7.53;;
28910;SDS011;16028;42.642;23.310;2022-07-04T02:49:00;9.98;;;7.85;;
28910;SDS011;16028;42.642;23.310;2022-07-04T02:51:27;9.93;;;8.25;;
28910;SDS011;16028;42.642;23.310;2022-07-04T02:53:54;9.88;;;7.82;;
28910;SDS011;16028;42.642;23.310;2022-07-04T02:56:21;9.02;;;7.90;;
28910;SDS011;16028;42.642;23.310;2022-07-04T02:58:48;8.63;;;7.32;;
28910;SDS011;16028;42.642;23.310;2022-07-04T03:01:17;8.55;;;7.22;;
28910;SDS011;16028;42.642;23.310;2022-07-04T03:03:44;8.05;;;6.97;;
28910;SDS011;16028;42.642;23.310;2022-07-04T03:06:12;11.23;;;7.07;;
28910;SDS011;16028;42.642;23.310;2022-07-04T03:08:39;9.20;;;6.60;;
28910;SDS011;16028;42.642;23.310;2022-07-04T03:11:06;11.73;;;6.95;;
28910;SDS011;16028;42.642;23.310;2022-07-04T03:13:33;8.27;;;6.05;;
28910;SDS011;16028;42.642;23.310;2022-07-04T03:16:02;11.98;;;5.90;;
28910;SDS011;16028;42.642;23.310;2022-07-04T03:18:30;7.10;;;6.40;;
28910;SDS011;16028;42.642;23.310;2022-07-04T03:20:57;7.50;;;6.03;;
28910;SDS011;16028;42.642;23.310;2022-07-04T03:23:24;6.80;;;6.10;;
28910;SDS011;16028;42.642;23.310;2022-07-04T03:25:50;11.30;;;8.98;;
28910;SDS011;16028;42.642;23.310;2022-07-04T03:28:17;9.93;;;6.72;;
28910;SDS011;16028;42.642;23.310;2022-07-04T03:30:44;9.75;;;7.55;;
28910;SDS011;16028;42.642;23.310;2022-07-04T03:33:11;9.15;;;6.57;;
28910;SDS011;16028;42.642;23.310;2022-07-04T03:35:39;11.95;;;5.78;;
28910;SDS011;16028;42.642;23.310;2022-07-04T03:38:06;9.10;;;6.13;;
28910;SDS011;16028;42.642;23.310;2022-07-04T03:40:32;10.30;;;5.70;;
28910;SDS011;16028;42.642;23.310;2022-07-04T03:43:00;7.78;;;5.72;;
28910;SDS011;16028;42.642;23.310;2022-07-04T03:45:27;7.70;;;5.43;;
28910;SDS011;16028;42.642;23.310;2022-07-04T03:47:54;7.32;;;5.70;;
28910;SDS011;16028;42.642;23.310;2022-07-04T03:50:22;5.55;;;4.97;;
28910;SDS011;16028;42.642;23.310;2022-07-04T03:52:51;5.88;;;4.93;;
28910;SDS011;16028;42.642;23.310;2022-07-04T03:55:17;7.50;;;5.28;;
28910;SDS011;16028;42.642;23.310;2022-07-04T03:57:44;6.30;;;5.70;;
28910;SDS011;16028;42.642;23.310;2022-07-04T04:00:11;10.38;;;6.20;;
28910;SDS011;16028;42.642;23.310;2022-07-04T04:02:39;8.30;;;5.70;;
28910;SDS011;16028;42.642;23.310;2022-07-04T04:05:06;11.10;;;5.40;;
28910;SDS011;16028;42.642;23.310;2022-07-04T04:07:52;9.25;;;5.05;;
28910;SDS011;16028;42.642;23.310;2022-07-04T04:10:23;9.07;;;5.45;;
28910;SDS011;16028;42.642;23.310;2022-07-04T04:12:50;12.20;;;5.50;;
28910;SDS011;16028;42.642;23.310;2022-07-04T04:15:17;5.38;;;4.55;;
28910;SDS011;16028;42.642;23.310;2022-07-04T04:17:44;8.15;;;5.05;;
28910;SDS011;16028;42.642;23.310;2022-07-04T04:20:10;13.82;;;6.68;;
28910;SDS011;16028;42.642;23.310;2022-07-04T04:22:37;10.63;;;6.45;;
28910;SDS011;16028;42.642;23.310;2022-07-04T04:25:06;11.48;;;6.75;;
28910;SDS011;16028;42.642;23.310;2022-07-04T04:27:33;7.30;;;6.03;;
28910;SDS011;16028;42.642;23.310;2022-07-04T04:30:00;7.75;;;6.30;;
28910;SDS011;16028;42.642;23.310;2022-07-04T04:32:27;11.02;;;7.03;;
28910;SDS011;16028;42.642;23.310;2022-07-04T04:34:54;13.55;;;7.15;;
28910;SDS011;16028;42.642;23.310;2022-07-04T04:37:20;18.25;;;7.20;;
28910;SDS011;16028;42.642;23.310;2022-07-04T04:39:47;12.35;;;6.43;;
28910;SDS011;16028;42.642;23.310;2022-07-04T04:42:15;9.05;;;5.50;;
28910;SDS011;16028;42.642;23.310;2022-07-04T04:44:42;12.32;;;6.10;;
28910;SDS011;16028;42.642;23.310;2022-07-04T04:47:09;15.13;;;6.90;;
28910;SDS011;16028;42.642;23.310;2022-07-04T04:49:36;10.40;;;5.97;;
28910;SDS011;16028;42.642;23.310;2022-07-04T04:52:03;7.95;;;5.70;;
28910;SDS011;16028;42.642;23.310;2022-07-04T04:54:31;7.40;;;5.93;;
28910;SDS011;16028;42.642;23.310;2022-07-04T04:56:58;7.45;;;5.57;;
28910;SDS011;16028;42.642;23.310;2022-07-04T04:59:26;8.02;;;4.97;;
28910;SDS011;16028;42.642;23.310;2022-07-04T05:01:54;9.82;;;5.97;;
28910;SDS011;16028;42.642;23.310;2022-07-04T05:04:21;8.70;;;5.75;;
28910;SDS011;16028;42.642;23.310;2022-07-04T05:06:48;11.95;;;5.47;;
28910;SDS011;16028;42.642;23.310;2022-07-04T05:09:14;9.57;;;5.93;;
28910;SDS011;16028;42.642;23.310;2022-07-04T05:11:41;14.50;;;6.30;;
28910;SDS011;16028;42.642;23.310;2022-07-04T05:14:08;11.15;;;5.70;;
28910;SDS011;16028;42.642;23.310;2022-07-04T05:16:36;6.35;;;5.50;;
28910;SDS011;16028;42.642;23.310;2022-07-04T05:19:03;11.98;;;5.22;;
28910;SDS011;16028;42.642;23.310;2022-07-04T05:21:30;9.38;;;4.72;;
28910;SDS011;16028;42.642;23.310;2022-07-04T05:23:56;7.03;;;5.50;;
28910;SDS011;16028;42.642;23.310;2022-07-04T05:26:23;10.20;;;5.35;;
28910;SDS011;16028;42.642;23.310;2022-07-04T05:28:50;12.00;;;5.32;;
28910;SDS011;16028;42.642;23.310;2022-07-04T05:31:17;9.77;;;5.85;;
28910;SDS011;16028;42.642;23.310;2022-07-04T05:33:45;9.50;;;5.53;;
28910;SDS011;16028;42.642;23.310;2022-07-04T05:36:12;7.38;;;5.20;;
28910;SDS011;16028;42.642;23.310;2022-07-04T05:38:44;9.35;;;5.43;;
28910;SDS011;16028;42.642;23.310;2022-07-04T05:41:11;9.00;;;5.38;;
28910;SDS011;16028;42.642;23.310;2022-07-04T05:43:42;6.68;;;5.75;;
28910;SDS011;16028;42.642;23.310;2022-07-04T05:46:09;10.23;;;5.35;;
28910;SDS011;16028;42.642;23.310;2022-07-04T05:48:40;11.02;;;5.82;;
28910;SDS011;16028;42.642;23.310;2022-07-04T05:51:10;9.23;;;5.47;;
28910;SDS011;16028;42.642;23.310;2022-07-04T05:53:49;9.50;;;5.65;;
28910;SDS011;16028;42.642;23.310;2022-07-04T05:56:24;12.00;;;5.50;;
28910;SDS011;16028;42.642;23.310;2022-07-04T05:59:05;12.35;;;5.25;;
28910;SDS011;16028;42.642;23.310;2022-07-04T06:01:35;6.97;;;5.20;;
28910;SDS011;16028;42.642;23.310;2022-07-04T06:04:07;8.82;;;5.30;;
28910;SDS011;16028;42.642;23.310;2022-07-04T06:06:52;8.68;;;5.13;;
28910;SDS011;16028;42.642;23.310;2022-07-04T06:11:57;7.60;;;5.25;;
28910;SDS011;16028;42.642;23.310;2022-07-04T06:14:35;10.50;;;5.35;;
28910;SDS011;16028;42.642;23.310;2022-07-04T06:19:54;8.20;;;5.40;;
28910;SDS011;16028;42.642;23.310;2022-07-04T06:22:37;10.38;;;6.22;;
28910;SDS011;16028;42.642;23.310;2022-07-04T06:25:11;11.68;;;5.60;;
28910;SDS011;16028;42.642;23.310;2022-07-04T06:27:55;8.70;;;5.10;;
28910;SDS011;16028;42.642;23.310;2022-07-04T06:30:23;11.77;;;5.57;;
28910;SDS011;16028;42.642;23.310;2022-07-04T06:32:51;8.85;;;5.63;;
28910;SDS011;16028;42.642;23.310;2022-07-04T06:35:19;8.23;;;5.55;;
28910;SDS011;16028;42.642;23.310;2022-07-04T06:38:15;7.30;;;5.60;;
28910;SDS011;16028;42.642;23.310;2022-07-04T06:40:59;8.45;;;5.53;;
28910;SDS011;16028;42.642;23.310;2022-07-04T06:43:29;12.57;;;5.90;;
28910;SDS011;16028;42.642;23.310;2022-07-04T06:45:59;12.98;;;6.00;;
28910;SDS011;16028;42.642;23.310;2022-07-04T06:48:31;14.15;;;6.28;;
28910;SDS011;16028;42.642;23.310;2022-07-04T06:51:05;9.90;;;6.07;;
28910;SDS011;16028;42.642;23.310;2022-07-04T06:53:34;12.38;;;5.40;;
28910;SDS011;16028;42.642;23.310;2022-07-04T06:56:03;13.38;;;5.75;;
28910;SDS011;16028;42.642;23.310;2022-07-04T06:58:31;9.52;;;5.72;;
28910;SDS011;16028;42.642;23.310;2022-07-04T07:01:09;7.80;;;5.78;;
28910;SDS011;16028;42.642;23.310;2022-07-04T07:03:54;6.88;;;5.22;;
28910;SDS011;16028;42.642;23.310;2022-07-04T07:06:28;9.20;;;5.70;;
28910;SDS011;16028;42.642;23.310;2022-07-04T07:12:28;11.07;;;5.00;;
28910;SDS011;16028;42.642;23.310;2022-07-04T07:15:22;16.40;;;4.82;;
28910;SDS011;16028;42.642;23.310;2022-07-04T07:18:21;9.50;;;5.30;;
28910;SDS011;16028;42.642;23.310;2022-07-04T07:21:15;13.30;;;5.28;;
28910;SDS011;16028;42.642;23.310;2022-07-04T07:27:26;7.40;;;5.00;;
28910;SDS011;16028;42.642;23.310;2022-07-04T07:30:47;10.65;;;5.30;;
28910;SDS011;16028;42.642;23.310;2022-07-04T07:33:56;12.43;;;5.40;;
28910;SDS011;16028;42.642;23.310;2022-07-04T07:40:01;15.13;;;5.70;;
28910;SDS011;16028;42.642;23.310;2022-07-04T07:43:00;11.05;;;4.90;;
28910;SDS011;16028;42.642;23.310;2022-07-04T07:49:02;8.98;;;5.10;;
28910;SDS011;16028;42.642;23.310;2022-07-04T07:51:48;10.45;;;5.63;;
28910;SDS011;16028;42.642;23.310;2022-07-04T07:54:50;8.52;;;6.22;;
28910;SDS011;16028;42.642;23.310;2022-07-04T07:57:47;9.05;;;6.15;;
28910;SDS011;16028;42.642;23.310;2022-07-04T08:00:14;8.05;;;5.43;;
28910;SDS011;16028;42.642;23.310;2022-07-04T08:02:42;8.95;;;5.57;;
28910;SDS011;16028;42.642;23.310;2022-07-04T08:05:26;12.48;;;6.40;;
28910;SDS011;16028;42.642;23.310;2022-07-04T08:07:53;9.45;;;6.15;;
28910;SDS011;16028;42.642;23.310;2022-07-04T08:10:22;11.07;;;5.35;;
28910;SDS011;16028;42.642;23.310;2022-07-04T08:12:50;10.93;;;5.53;;
28910;SDS011;16028;42.642;23.310;2022-07-04T08:15:17;7.57;;;5.32;;
28910;SDS011;16028;42.642;23.310;2022-07-04T08:17:46;13.10;;;5.75;;
28910;SDS011;16028;42.642;23.310;2022-07-04T08:20:13;9.23;;;5.05;;
28910;SDS011;16028;42.642;23.310;2022-07-04T08:22:40;11.13;;;5.63;;
28910;SDS011;16028;42.642;23.310;2022-07-04T08:25:07;7.50;;;5.68;;
28910;SDS011;16028;42.642;23.310;2022-07-04T08:27:34;12.43;;;6.10;;
28910;SDS011;16028;42.642;23.310;2022-07-04T08:30:03;14.50;;;5.57;;
28910;SDS011;16028;42.642;23.310;2022-07-04T08:32:33;7.95;;;5.75;;
28910;SDS011;16028;42.642;23.310;2022-07-04T08:35:00;9.23;;;5.32;;
28910;SDS011;16028;42.642;23.310;2022-07-04T08:37:27;9.02;;;5.90;;
28910;SDS011;16028;42.642;23.310;2022-07-04T08:39:54;8.70;;;6.18;;
28910;SDS011;16028;42.642;23.310;2022-07-04T08:42:21;10.95;;;6.28;;
28910;SDS011;16028;42.642;23.310;2022-07-04T08:44:49;11.45;;;6.90;;
28910;SDS011;16028;42.642;23.310;2022-07-04T08:47:18;19.65;;;6.85;;
28910;SDS011;16028;42.642;23.310;2022-07-04T08:49:49;12.30;;;6.45;;
28910;SDS011;16028;42.642;23.310;2022-07-04T08:54:56;9.50;;;6.72;;
28910;SDS011;16028;42.642;23.310;2022-07-04T08:57:41;10.75;;;7.25;;
28910;SDS011;16028;42.642;23.310;2022-07-04T09:00:25;12.55;;;6.85;;
28910;SDS011;16028;42.642;23.310;2022-07-04T09:02:56;8.90;;;6.38;;
28910;SDS011;16028;42.642;23.310;2022-07-04T09:05:26;11.07;;;6.65;;
28910;SDS011;16028;42.642;23.310;2022-07-04T09:07:53;9.57;;;6.80;;
28910;SDS011;16028;42.642;23.310;2022-07-04T09:10:21;8.38;;;6.70;;
28910;SDS011;16028;42.642;23.310;2022-07-04T09:12:48;11.38;;;7.38;;
28910;SDS011;16028;42.642;23.310;2022-07-04T09:15:18;11.40;;;6.43;;
28910;SDS011;16028;42.642;23.310;2022-07-04T09:17:45;11.73;;;6.65;;
28910;SDS011;16028;42.642;23.310;2022-07-04T09:20:14;8.63;;;7.28;;
28910;SDS011;16028;42.642;23.310;2022-07-04T09:22:42;11.70;;;6.70;;
28910;SDS011;16028;42.642;23.310;2022-07-04T09:25:13;11.73;;;6.40;;
28910;SDS011;16028;42.642;23.310;2022-07-04T09:27:40;8.27;;;6.15;;
28910;SDS011;16028;42.642;23.310;2022-07-04T09:30:10;15.63;;;7.28;;
28910;SDS011;16028;42.642;23.310;2022-07-04T09:32:40;10.63;;;6.50;;
28910;SDS011;16028;42.642;23.310;2022-07-04T09:35:11;9.15;;;6.57;;
28910;SDS011;16028;42.642;23.310;2022-07-04T09:37:41;9.25;;;6.68;;
28910;SDS011;16028;42.642;23.310;2022-07-04T09:40:20;7.45;;;6.53;;
28910;SDS011;16028;42.642;23.310;2022-07-04T09:42:51;9.35;;;6.80;;
28910;SDS011;16028;42.642;23.310;2022-07-04T09:45:19;8.10;;;6.97;;
28910;SDS011;16028;42.642;23.310;2022-07-04T09:47:48;7.78;;;6.97;;
28910;SDS011;16028;42.642;23.310;2022-07-04T09:50:17;8.20;;;7.25;;
28910;SDS011;16028;42.642;23.310;2022-07-04T09:52:50;11.23;;;7.03;;
28910;SDS011;16028;42.642;23.310;2022-07-04T09:55:20;9.13;;;7.22;;
28910;SDS011;16028;42.642;23.310;2022-07-04T09:57:48;12.27;;;6.82;;
28910;SDS011;16028;42.642;23.310;2022-07-04T10:00:20;8.70;;;6.47;;
28910;SDS011;16028;42.642;23.310;2022-07-04T10:02:52;8.18;;;6.55;;
28910;SDS011;16028;42.642;23.310;2022-07-04T10:05:21;10.40;;;7.22;;
28910;SDS011;16028;42.642;23.310;2022-07-04T10:07:51;9.63;;;7.40;;
28910;SDS011;16028;42.642;23.310;2022-07-04T10:10:24;10.32;;;7.68;;
28910;SDS011;16028;42.642;23.310;2022-07-04T10:12:53;8.98;;;6.80;;
28910;SDS011;16028;42.642;23.310;2022-07-04T10:15:20;7.63;;;6.75;;
28910;SDS011;16028;42.642;23.310;2022-07-04T10:17:48;7.65;;;6.90;;
28910;SDS011;16028;42.642;23.310;2022-07-04T10:20:16;7.95;;;7.00;;
28910;SDS011;16028;42.642;23.310;2022-07-04T10:22:43;7.60;;;6.90;;
28910;SDS011;16028;42.642;23.310;2022-07-04T10:25:11;12.98;;;7.60;;
28910;SDS011;16028;42.642;23.310;2022-07-04T10:27:39;9.95;;;6.70;;
28910;SDS011;16028;42.642;23.310;2022-07-04T10:30:07;7.50;;;6.80;;
28910;SDS011;16028;42.642;23.310;2022-07-04T10:32:40;10.70;;;6.97;;
28910;SDS011;16028;42.642;23.310;2022-07-04T10:35:11;7.65;;;6.88;;
28910;SDS011;16028;42.642;23.310;2022-07-04T10:37:57;7.70;;;6.88;;
28910;SDS011;16028;42.642;23.310;2022-07-04T10:40:40;8.32;;;6.75;;
28910;SDS011;16028;42.642;23.310;2022-07-04T10:46:32;10.70;;;7.57;;
28910;SDS011;16028;42.642;23.310;2022-07-04T10:49:04;10.27;;;7.28;;
28910;SDS011;16028;42.642;23.310;2022-07-04T10:51:37;8.45;;;7.20;;
28910;SDS011;16028;42.642;23.310;2022-07-04T10:54:07;11.18;;;7.75;;
28910;SDS011;16028;42.642;23.310;2022-07-04T10:56:37;7.65;;;6.63;;
28910;SDS011;16028;42.642;23.310;2022-07-04T10:59:10;10.93;;;7.30;;
28910;SDS011;16028;42.642;23.310;2022-07-04T11:01:51;9.07;;;6.95;;
28910;SDS011;16028;42.642;23.310;2022-07-04T11:04:50;11.68;;;7.40;;
28910;SDS011;16028;42.642;23.310;2022-07-04T11:07:19;11.25;;;6.85;;
28910;SDS011;16028;42.642;23.310;2022-07-04T11:09:47;8.30;;;6.43;;
28910;SDS011;16028;42.642;23.310;2022-07-04T11:18:27;10.70;;;7.35;;
28910;SDS011;16028;42.642;23.310;2022-07-04T11:20:55;7.80;;;7.00;;
28910;SDS011;16028;42.642;23.310;2022-07-04T11:23:22;9.00;;;6.93;;
28910;SDS011;16028;42.642;23.310;2022-07-04T11:25:50;10.50;;;6.63;;
28910;SDS011;16028;42.642;23.310;2022-07-04T11:28:21;7.80;;;7.00;;
28910;SDS011;16028;42.642;23.310;2022-07-04T11:30:49;11.27;;;7.20;;
28910;SDS011;16028;42.642;23.310;2022-07-04T11:33:17;9.63;;;6.68;;
28910;SDS011;16028;42.642;23.310;2022-07-04T11:36:01;8.43;;;7.05;;
28910;SDS011;16028;42.642;23.310;2022-07-04T11:38:44;11.40;;;6.97;;
28910;SDS011;16028;42.642;23.310;2022-07-04T11:41:13;9.07;;;7.38;;
28910;SDS011;16028;42.642;23.310;2022-07-04T11:43:59;7.55;;;6.68;;
28910;SDS011;16028;42.642;23.310;2022-07-04T11:46:46;12.23;;;7.00;;
28910;SDS011;16028;42.642;23.310;2022-07-04T11:49:14;7.75;;;7.00;;
28910;SDS011;16028;42.642;23.310;2022-07-04T11:51:46;10.02;;;6.65;;
28910;SDS011;16028;42.642;23.310;2022-07-04T11:54:17;12.52;;;7.55;;
28910;SDS011;16028;42.642;23.310;2022-07-04T11:56:44;12.90;;;7.50;;
28910;SDS011;16028;42.642;23.310;2022-07-04T11:59:13;8.40;;;7.15;;
28910;SDS011;16028;42.642;23.310;2022-07-04T12:01:43;8.45;;;7.00;;
28910;SDS011;16028;42.642;23.310;2022-07-04T12:04:14;9.77;;;7.10;;
28910;SDS011;16028;42.642;23.310;2022-07-04T12:06:43;13.50;;;7.20;;
28910;SDS011;16028;42.642;23.310;2022-07-04T12:09:11;8.60;;;6.90;;
28910;SDS011;16028;42.642;23.310;2022-07-04T12:11:49;10.93;;;7.22;;
28910;SDS011;16028;42.642;23.310;2022-07-04T12:14:18;12.70;;;7.00;;
28910;SDS011;16028;42.642;23.310;2022-07-04T12:16:45;8.10;;;7.35;;
28910;SDS011;16028;42.642;23.310;2022-07-04T12:19:13;11.98;;;6.70;;
28910;SDS011;16028;42.642;23.310;2022-07-04T12:21:41;13.98;;;8.00;;
28910;SDS011;16028;42.642;23.310;2022-07-04T12:24:09;9.02;;;7.20;;
28910;SDS011;16028;42.642;23.310;2022-07-04T12:26:44;9.10;;;6.53;;
28910;SDS011;16028;42.642;23.310;2022-07-04T12:29:21;9.98;;;6.90;;
28910;SDS011;16028;42.642;23.310;2022-07-04T12:31:50;12.82;;;6.90;;
28910;SDS011;16028;42.642;23.310;2022-07-04T12:34:18;11.82;;;6.53;;
28910;SDS011;16028;42.642;23.310;2022-07-04T12:36:49;8.38;;;7.47;;
28910;SDS011;16028;42.642;23.310;2022-07-04T12:39:29;12.25;;;7.30;;
28910;SDS011;16028;42.642;23.310;2022-07-04T12:42:03;7.68;;;6.80;;
28910;SDS011;16028;42.642;23.310;2022-07-04T12:44:36;11.05;;;7.70;;
28910;SDS011;16028;42.642;23.310;2022-07-04T12:47:03;14.13;;;8.13;;
28910;SDS011;16028;42.642;23.310;2022-07-04T12:49:31;8.45;;;7.53;;
28910;SDS011;16028;42.642;23.310;2022-07-04T12:52:05;9.70;;;7.18;;
28910;SDS011;16028;42.642;23.310;2022-07-04T12:54:34;8.77;;;7.30;;
28910;SDS011;16028;42.642;23.310;2022-07-04T12:57:04;7.70;;;6.60;;
28910;SDS011;16028;42.642;23.310;2022-07-04T12:59:32;8.02;;;6.90;;
28910;SDS011;16028;42.642;23.310;2022-07-04T13:02:00;13.55;;;7.30;;
28910;SDS011;16028;42.642;23.310;2022-07-04T13:04:27;11.02;;;7.45;;
28910;SDS011;16028;42.642;23.310;2022-07-04T13:06:56;10.32;;;7.18;;
28910;SDS011;16028;42.642;23.310;2022-07-04T13:09:24;10.18;;;6.70;;
28910;SDS011;16028;42.642;23.310;2022-07-04T13:11:51;9.73;;;7.20;;
28910;SDS011;16028;42.642;23.310;2022-07-04T13:17:04;12.00;;;7.00;;
28910;SDS011;16028;42.642;23.310;2022-07-04T13:19:32;10.63;;;7.53;;
28910;SDS011;16028;42.642;23.310;2022-07-04T13:21:59;8.57;;;7.65;;
28910;SDS011;16028;42.642;23.310;2022-07-04T13:24:26;14.82;;;7.65;;
28910;SDS011;16028;42.642;23.310;2022-07-04T13:26:53;12.02;;;7.50;;
28910;SDS011;16028;42.642;23.310;2022-07-04T13:29:20;9.63;;;6.90;;
28910;SDS011;16028;42.642;23.310;2022-07-04T13:31:47;13.60;;;7.38;;
28910;SDS011;16028;42.642;23.310;2022-07-04T13:34:16;9.27;;;7.28;;
28910;SDS011;16028;42.642;23.310;2022-07-04T13:36:44;7.72;;;6.93;;
28910;SDS011;16028;42.642;23.310;2022-07-04T13:39:16;9.27;;;6.80;;
28910;SDS011;16028;42.642;23.310;2022-07-04T13:41:43;10.73;;;6.88;;
28910;SDS011;16028;42.642;23.310;2022-07-04T13:44:10;10.52;;;7.18;;
28910;SDS011;16028;42.642;23.310;2022-07-04T13:46:41;11.13;;;7.40;;
28910;SDS011;16028;42.642;23.310;2022-07-04T13:49:08;9.15;;;7.20;;
28910;SDS011;16028;42.642;23.310;2022-07-04T13:51:36;11.95;;;7.32;;
28910;SDS011;16028;42.642;23.310;2022-07-04T13:54:05;10.13;;;7.10;;
28910;SDS011;16028;42.642;23.310;2022-07-04T13:56:32;7.60;;;6.80;;
28910;SDS011;16028;42.642;23.310;2022-07-04T13:59:00;7.32;;;6.32;;
28910;SDS011;16028;42.642;23.310;2022-07-04T14:01:29;7.32;;;6.63;;
28910;SDS011;16028;42.642;23.310;2022-07-04T14:03:56;10.02;;;6.72;;
28910;SDS011;16028;42.642;23.310;2022-07-04T14:06:23;9.40;;;6.68;;
28910;SDS011;16028;42.642;23.310;2022-07-04T14:08:51;8.75;;;6.60;;
28910;SDS011;16028;42.642;23.310;2022-07-04T14:11:18;12.88;;;7.28;;
28910;SDS011;16028;42.642;23.310;2022-07-04T14:13:45;8.73;;;7.20;;
28910;SDS011;16028;42.642;23.310;2022-07-04T14:16:11;10.75;;;6.68;;
28910;SDS011;16028;42.642;23.310;2022-07-04T14:18:38;9.20;;;6.85;;
28910;SDS011;16028;42.642;23.310;2022-07-04T14:21:05;7.60;;;6.90;;
28910;SDS011;16028;42.642;23.310;2022-07-04T14:23:32;7.80;;;6.68;;
28910;SDS011;16028;42.642;23.310;2022-07-04T14:26:09;10.82;;;7.25;;
28910;SDS011;16028;42.642;23.310;2022-07-04T14:28:37;10.48;;;7.90;;
28910;SDS011;16028;42.642;23.310;2022-07-04T14:31:05;17.48;;;7.85;;
28910;SDS011;16028;42.642;23.310;2022-07-04T14:33:31;9.25;;;7.38;;
28910;SDS011;16028;42.642;23.310;2022-07-04T14:35:59;14.85;;;7.45;;
28910;SDS011;16028;42.642;23.310;2022-07-04T14:38:26;9.93;;;6.70;;
28910;SDS011;16028;42.642;23.310;2022-07-04T14:40:53;10.57;;;6.97;;
28910;SDS011;16028;42.642;23.310;2022-07-04T14:43:21;9.15;;;7.38;;
28910;SDS011;16028;42.642;23.310;2022-07-04T14:45:48;9.73;;;6.90;;
28910;SDS011;16028;42.642;23.310;2022-07-04T14:48:15;8.43;;;7.40;;
28910;SDS011;16028;42.642;23.310;2022-07-04T14:50:42;10.50;;;7.38;;
28910;SDS011;16028;42.642;23.310;2022-07-04T14:53:09;14.30;;;7.75;;
28910;SDS011;16028;42.642;23.310;2022-07-04T14:55:35;7.75;;;7.05;;
28910;SDS011;16028;42.642;23.310;2022-07-04T14:58:02;8.15;;;7.25;;
28910;SDS011;16028;42.642;23.310;2022-07-04T15:00:30;9.32;;;7.47;;
28910;SDS011;16028;42.642;23.310;2022-07-04T15:02:57;8.80;;;7.30;;
28910;SDS011;16028;42.642;23.310;2022-07-04T15:05:24;10.35;;;7.90;;
28910;SDS011;16028;42.642;23.310;2022-07-04T15:07:51;8.75;;;7.30;;
28910;SDS011;16028;42.642;23.310;2022-07-04T15:10:20;7.93;;;7.13;;
28910;SDS011;16028;42.642;23.310;2022-07-04T15:12:47;11.90;;;7.97;;
28910;SDS011;16028;42.642;23.310;2022-07-04T15:15:14;8.07;;;7.30;;
28910;SDS011;16028;42.642;23.310;2022-07-04T15:17:42;9.13;;;7.32;;
28910;SDS011;16028;42.642;23.310;2022-07-04T15:20:09;7.97;;;7.07;;